»·PEaware :: N710DS KACV-KSNA

N710DS :: KACV-KSNA

FLIGHT INFORMATION

Flight Status: Arrived
Operator: Privately registered:
United States
More flights under this callsign
Pilot: John H. (10732)
Aircraft: Unknown
(B60T)
More flights by this aircraft type
Origin: KACV Arcata
United States
Destination: KSNA John Wayne-Orange Co
United States
More flights between these airports :: More routes between these airports
Route: +HOCUT5 FOT V27 VTU V208 SXC V21 SLI
File this flight plan on PilotEdge
Remarks:
Altitude:
(Current/Filed)
25,000ft
Speed:
(Current/Filed)
300kts
Departed: 13-Jun-19 04:44 PM
Arrived: 13-Jun-19 06:56 PM
Distance/Time
Traveled:
529nm/2:12
Distance/Time
To Go:
Arrived

Flight Plot

Page will automatically refresh every two minutes.

Flight plan parsing failed; only flown route is shown


Map Options




Map Legend


Flown Route
Filed Route
Departure Airport
Arrival Airport
Navaid (VOR, NDB)
Fix

Horizontal Profiles

Position Reports

Time Latitude Longitude Heading Altitude Ground
Speed
13-Jun-19 16:36 40.975044 -124.109218 269 221ft 0kts
13-Jun-19 16:37 40.975044 -124.109218 269 221ft 0kts
13-Jun-19 16:38 40.975053 -124.109258 301 221ft 2kts
13-Jun-19 16:39 40.976820 -124.108726 335 221ft 7kts
13-Jun-19 16:40 40.979368 -124.110443 333 221ft 11kts
13-Jun-19 16:41 40.982454 -124.112588 332 221ft 13kts
13-Jun-19 16:42 40.984082 -124.112353 151 221ft 36kts
13-Jun-19 16:43 40.946837 -124.099217 230 2088ft 160kts
13-Jun-19 16:44 40.957832 -124.145590 308 6119ft 144kts
13-Jun-19 16:45 40.976181 -124.192047 275 9993ft 152kts
13-Jun-19 16:46 40.975396 -124.251053 265 13614ft 167kts
13-Jun-19 16:47 40.971148 -124.313147 241 17453ft 163kts
13-Jun-19 16:48 40.935906 -124.326299 155 21432ft 138kts
13-Jun-19 16:50 40.896316 -124.313095 165 24073ft 191kts
13-Jun-19 16:51 40.835878 -124.292214 164 25000ft 248kts
13-Jun-19 16:52 40.765191 -124.267282 164 25058ft 272kts
13-Jun-19 16:53 40.691259 -124.241211 164 25045ft 282kts
13-Jun-19 16:54 40.618594 -124.202181 155 25039ft 283kts
13-Jun-19 16:55 40.547061 -124.158609 155 25016ft 283kts
13-Jun-19 16:56 40.475321 -124.115114 155 25022ft 283kts
13-Jun-19 16:57 40.403891 -124.071704 155 25016ft 283kts
13-Jun-19 16:58 40.332158 -124.028393 155 25011ft 283kts
13-Jun-19 16:59 40.260364 -123.985186 155 25016ft 283kts
13-Jun-19 17:00 40.187958 -123.941756 159 24975ft 300kts
13-Jun-19 17:01 40.114569 -123.897775 156 24983ft 291kts
13-Jun-19 17:02 40.041328 -123.854005 156 24976ft 287kts
13-Jun-19 17:03 39.968860 -123.810818 156 24983ft 285kts
13-Jun-19 17:04 39.896756 -123.767948 156 24985ft 285kts
13-Jun-19 17:05 39.824152 -123.724881 156 24933ft 287kts
13-Jun-19 17:06 39.751666 -123.681979 156 24945ft 286kts
13-Jun-19 17:07 39.679179 -123.639180 156 24934ft 285kts
13-Jun-19 17:08 39.606885 -123.596593 156 24941ft 285kts
13-Jun-19 17:09 39.534705 -123.554170 156 24937ft 285kts
13-Jun-19 17:09 39.474129 -123.518646 156 24926ft 285kts
13-Jun-19 17:11 39.390001 -123.469418 157 24927ft 285kts
13-Jun-19 17:12 39.317512 -123.427106 158 24950ft 285kts
13-Jun-19 17:12 39.257062 -123.391906 157 24950ft 285kts
13-Jun-19 17:13 39.184736 -123.349856 158 24951ft 285kts
13-Jun-19 17:15 39.100169 -123.300823 158 24956ft 285kts
13-Jun-19 17:15 39.040914 -123.263325 152 24956ft 287kts
13-Jun-19 17:16 38.973613 -123.207401 150 24959ft 288kts
13-Jun-19 17:17 38.906175 -123.151359 150 24959ft 288kts
13-Jun-19 17:18 38.838805 -123.095552 150 24960ft 288kts
13-Jun-19 17:19 38.776897 -123.044394 150 24961ft 288kts
13-Jun-19 17:20 38.709335 -122.989496 156 24960ft 286kts
13-Jun-19 17:21 38.632632 -122.969747 174 24964ft 281kts
13-Jun-19 17:22 38.555124 -122.955283 174 24964ft 281kts
13-Jun-19 17:23 38.477402 -122.940805 174 24966ft 281kts
13-Jun-19 17:24 38.399800 -122.926384 174 24966ft 282kts
13-Jun-19 17:25 38.322288 -122.912012 174 24967ft 281kts
13-Jun-19 17:26 38.244490 -122.897618 174 24972ft 281kts
13-Jun-19 17:27 38.167156 -122.883345 174 24974ft 281kts
13-Jun-19 17:28 38.089568 -122.868683 171 24979ft 282kts
13-Jun-19 17:29 38.013959 -122.838753 164 24982ft 285kts
13-Jun-19 17:30 37.938992 -122.806012 165 24987ft 285kts
13-Jun-19 17:31 37.863960 -122.773472 165 24991ft 285kts
13-Jun-19 17:32 37.788602 -122.740877 165 24994ft 285kts
13-Jun-19 17:33 37.713295 -122.708381 165 24998ft 286kts
13-Jun-19 17:34 37.638022 -122.675971 165 24999ft 286kts
13-Jun-19 17:35 37.562696 -122.643605 165 25004ft 286kts
13-Jun-19 17:36 37.487314 -122.611284 165 25009ft 286kts
13-Jun-19 17:37 37.411587 -122.578886 165 25008ft 286kts
13-Jun-19 17:38 37.343294 -122.549734 165 25003ft 287kts
13-Jun-19 17:39 37.267791 -122.517570 165 25006ft 287kts
13-Jun-19 17:40 37.191988 -122.485349 165 25013ft 287kts
13-Jun-19 17:41 37.116167 -122.453183 165 25014ft 288kts
13-Jun-19 17:42 37.046195 -122.401930 148 25020ft 295kts
13-Jun-19 17:43 36.979449 -122.342001 148 25023ft 295kts
13-Jun-19 17:44 36.912227 -122.282225 148 25018ft 296kts
13-Jun-19 17:45 36.844790 -122.222457 148 25018ft 297kts
13-Jun-19 17:46 36.777254 -122.162746 148 25020ft 297kts
13-Jun-19 17:47 36.709701 -122.103132 147 25018ft 298kts
13-Jun-19 17:48 36.642056 -122.043530 147 25016ft 299kts
13-Jun-19 17:49 36.574009 -121.983745 147 25016ft 299kts
13-Jun-19 17:50 36.505923 -121.924001 147 25013ft 299kts
13-Jun-19 17:51 36.437896 -121.863784 147 25012ft 299kts
13-Jun-19 17:52 36.369650 -121.804484 147 25006ft 300kts
13-Jun-19 17:53 36.301214 -121.745082 147 25006ft 300kts
13-Jun-19 17:54 36.232524 -121.685587 147 25008ft 300kts
13-Jun-19 17:55 36.162070 -121.630743 157 24998ft 299kts
13-Jun-19 17:56 36.085594 -121.591040 159 24995ft 299kts
13-Jun-19 17:57 36.015788 -121.554898 158 24993ft 299kts
13-Jun-19 17:58 35.938742 -121.514846 158 24993ft 299kts
13-Jun-19 17:59 35.861915 -121.474945 158 24994ft 299kts
13-Jun-19 18:00 35.785121 -121.435131 159 24990ft 299kts
13-Jun-19 18:01 35.708303 -121.395388 159 24991ft 299kts
13-Jun-19 18:02 35.632720 -121.353253 146 24992ft 301kts
13-Jun-19 18:03 35.579850 -121.272008 131 24994ft 306kts
13-Jun-19 18:04 35.527378 -121.190080 131 24993ft 305kts
13-Jun-19 18:05 35.475018 -121.107776 131 24990ft 305kts
13-Jun-19 18:06 35.422793 -121.025623 131 24989ft 305kts
13-Jun-19 18:07 35.370541 -120.943571 131 24990ft 305kts
13-Jun-19 18:08 35.318401 -120.861861 132 24991ft 305kts
13-Jun-19 18:09 35.266028 -120.780005 132 24990ft 305kts
13-Jun-19 18:10 35.203740 -120.712417 146 24991ft 299kts
13-Jun-19 18:11 35.137154 -120.650852 146 24995ft 299kts
13-Jun-19 18:12 35.070936 -120.589181 146 24995ft 299kts
13-Jun-19 18:13 35.004931 -120.527720 146 24995ft 299kts
13-Jun-19 18:14 34.938586 -120.466059 146 24998ft 299kts
13-Jun-19 18:15 34.879833 -120.411561 146 24999ft 299kts
13-Jun-19 18:16 34.813748 -120.350374 146 25000ft 299kts
13-Jun-19 18:17 34.747446 -120.289107 147 25002ft 299kts
13-Jun-19 18:18 34.681251 -120.228068 147 25003ft 299kts
13-Jun-19 18:19 34.614941 -120.167050 147 25002ft 299kts
13-Jun-19 18:20 34.548565 -120.106073 147 25001ft 299kts
13-Jun-19 18:21 34.482010 -120.045390 147 25004ft 299kts
13-Jun-19 18:22 34.415372 -119.984885 147 24990ft 299kts
13-Jun-19 18:23 34.348643 -119.924407 147 24987ft 299kts
13-Jun-19 18:24 34.290713 -119.852854 115 24987ft 312kts
13-Jun-19 18:25 34.293142 -119.746324 87 24988ft 322kts
13-Jun-19 18:26 34.300381 -119.638391 88 24984ft 322kts
13-Jun-19 18:27 34.308406 -119.530338 87 24983ft 322kts
13-Jun-19 18:28 34.316706 -119.421934 87 24687ft 328kts
13-Jun-19 18:29 34.324800 -119.316007 87 23988ft 307kts
13-Jun-19 18:30 34.311627 -119.217486 126 23411ft 309kts
13-Jun-19 18:31 34.243567 -119.154918 147 21987ft 304kts
13-Jun-19 18:32 34.174954 -119.098057 146 20546ft 295kts
13-Jun-19 18:33 34.104910 -119.047776 168 19101ft 291kts
13-Jun-19 18:34 34.024538 -119.039264 175 17673ft 289kts
13-Jun-19 18:35 33.952361 -119.031768 175 16369ft 286kts
13-Jun-19 18:36 33.874519 -119.023630 175 14925ft 274kts
13-Jun-19 18:37 33.800067 -119.012838 161 13488ft 269kts
13-Jun-19 18:38 33.748024 -118.949405 131 12055ft 270kts
13-Jun-19 18:39 33.699714 -118.881728 133 10910ft 260kts
13-Jun-19 18:40 33.652114 -118.814286 132 9412ft 267kts
13-Jun-19 18:41 33.604395 -118.745957 132 7910ft 266kts
13-Jun-19 18:42 33.557046 -118.678174 132 6413ft 263kts
13-Jun-19 18:43 33.534040 -118.599222 85 5102ft 258kts
13-Jun-19 18:44 33.544934 -118.517659 81 4975ft 244kts
13-Jun-19 18:45 33.556536 -118.437581 81 4975ft 244kts
13-Jun-19 18:46 33.568103 -118.357687 81 4993ft 243kts
13-Jun-19 18:47 33.579790 -118.278133 81 4994ft 243kts
13-Jun-19 18:48 33.591446 -118.197958 81 4990ft 243kts
13-Jun-19 18:49 33.603046 -118.117802 81 4991ft 243kts
13-Jun-19 18:50 33.614715 -118.038916 81 3580ft 210kts
13-Jun-19 18:51 33.628723 -117.967909 54 3008ft 216kts
13-Jun-19 18:52 33.670460 -117.919194 39 2218ft 185kts
13-Jun-19 18:53 33.702403 -117.892457 33 1397ft 136kts
13-Jun-19 18:54 33.700600 -117.858535 165 1573ft 114kts
13-Jun-19 18:55 33.677791 -117.867548 250 59ft 15kts
13-Jun-19 18:56 33.677990 -117.868293 299 59ft 2kts
13-Jun-19 18:58 33.676334 -117.869996 207 59ft 10kts
13-Jun-19 18:59 33.674900 -117.871672 312 59ft 6kts
13-Jun-19 19:00 33.674875 -117.871868 222 59ft 0kts

Navigation Log

Ident Type
Flight plan parsing failed, navigation log unavailable